TAF Text Data
IDs:
Format:
Raw Decoded Include METAR

Data at: 0514 UTC 24 Sep 2018

KSRQ 232320Z 2400/2424 08006KT P6SM VCTS SCT040CB BKN070
  FM240300 08005KT P6SM SCT250
  FM241400 12007KT P6SM SCT030 SCT250
  FM241900 28008KT P6SM VCTS SCT040CB SCT250